createdAt,value
2023-03-30T00:01:17.454Z,100363.94
2023-03-30T00:03:45.936Z,100349.16
2023-03-30T00:06:14.744Z,100340.59
2023-03-30T00:08:41.279Z,100345.75
2023-03-30T00:11:13.190Z,100341.41
2023-03-30T00:13:40.209Z,100336.22
2023-03-30T00:16:09.104Z,100337.97
2023-03-30T00:18:36.689Z,100338.81
2023-03-30T00:21:03.804Z,100337.94
2023-03-30T00:23:30.880Z,100329.22
2023-03-30T00:25:57.317Z,100325.69
2023-03-30T00:28:26.084Z,100321.28
2023-03-30T00:30:53.686Z,100319.53
2023-03-30T00:33:27.590Z,100322.13
2023-03-30T00:36:00.328Z,100317.72
2023-03-30T00:38:27.205Z,100312.50
2023-03-30T00:40:55.957Z,100316.75
2023-03-30T00:43:22.999Z,100310.72
2023-03-30T00:45:49.869Z,100299.50
2023-03-30T00:48:19.423Z,100296.84
2023-03-30T00:50:53.299Z,100297.69
2023-03-30T00:53:28.731Z,100289.06
2023-03-30T00:55:56.099Z,100295.09
2023-03-30T00:58:23.020Z,100281.25
2023-03-30T01:00:49.572Z,100282.06
2023-03-30T01:03:19.424Z,100282.06
2023-03-30T01:05:46.280Z,100282.06
2023-03-30T01:08:16.568Z,100275.06
2023-03-30T01:10:44.664Z,100266.34
2023-03-30T01:13:12.782Z,100260.31
2023-03-30T01:15:48.639Z,100266.38
2023-03-30T01:18:24.113Z,100257.69
2023-03-30T01:21:04.239Z,100261.09
2023-03-30T01:23:49.601Z,100271.50
2023-03-30T01:26:36.448Z,100245.47
2023-03-30T01:29:10.202Z,100230.75
2023-03-30T01:31:54.716Z,100232.38
2023-03-30T01:34:33.690Z,100228.03
2023-03-30T01:37:28.812Z,100227.06
2023-03-30T01:40:17.298Z,100215.78
2023-03-30T01:42:57.491Z,100195.06
2023-03-30T01:45:33.529Z,100201.13
2023-03-30T01:48:13.831Z,100200.94
2023-03-30T01:50:42.987Z,100203.53
2023-03-30T01:53:23.455Z,100193.09
2023-03-30T01:55:55.802Z,100189.53
2023-03-30T01:58:44.218Z,100202.50
2023-03-30T02:01:13.603Z,100191.25
2023-03-30T02:03:42.053Z,100180.84
2023-03-30T02:06:24.443Z,100172.16
2023-03-30T02:08:52.450Z,100190.28
2023-03-30T02:11:18.869Z,100178.97
2023-03-30T02:13:47.325Z,100174.63
2023-03-30T02:16:16.755Z,100165.06
2023-03-30T02:18:43.473Z,100165.88
2023-03-30T02:21:09.958Z,100158.13
2023-03-30T02:23:39.964Z,100162.38
2023-03-30T02:26:08.025Z,100151.97
2023-03-30T02:28:35.169Z,100145.88
2023-03-30T02:31:01.926Z,100154.47
2023-03-30T02:33:36.461Z,100145.78
2023-03-30T02:36:10.271Z,100150.09
2023-03-30T02:38:52.740Z,100153.47
2023-03-30T02:41:33.201Z,100141.22
2023-03-30T02:44:14.743Z,100137.72
2023-03-30T02:46:49.901Z,100137.59
2023-03-30T02:49:47.288Z,100121.94
2023-03-30T02:52:36.864Z,100116.59
2023-03-30T02:55:22.196Z,100114.75
2023-03-30T02:57:55.798Z,100109.47
2023-03-30T03:00:28.201Z,100105.97
2023-03-30T03:02:58.384Z,100100.66
2023-03-30T03:05:26.333Z,100089.34
2023-03-30T03:07:53.574Z,100095.25
2023-03-30T03:10:20.042Z,100095.22
2023-03-30T03:12:46.838Z,100095.09
2023-03-30T03:15:13.830Z,100088.06
2023-03-30T03:17:40.314Z,100081.09
2023-03-30T03:20:10.479Z,100091.44
2023-03-30T03:22:37.249Z,100094.88
2023-03-30T03:25:05.730Z,100107.75
2023-03-30T03:27:32.145Z,100108.59
2023-03-30T03:29:58.856Z,100094.59
2023-03-30T03:32:25.328Z,100091.19
2023-03-30T03:34:52.045Z,100072.16
2023-03-30T03:37:18.517Z,100075.56
2023-03-30T03:39:44.952Z,100062.59
2023-03-30T03:42:11.492Z,100078.09
2023-03-30T03:44:38.633Z,100069.41
2023-03-30T03:47:05.070Z,100059.06
2023-03-30T03:49:31.656Z,100059.06
2023-03-30T03:51:58.141Z,100072.06
2023-03-30T03:54:24.566Z,100065.22
2023-03-30T03:56:51.959Z,100036.72
2023-03-30T03:59:19.513Z,100023.81
2023-03-30T04:01:46.050Z,100021.28
2023-03-30T04:04:12.520Z,100015.31
2023-03-30T04:06:38.962Z,100004.31
2023-03-30T04:09:05.404Z,100010.44
2023-03-30T04:11:31.832Z,100007.94
2023-03-30T04:13:58.240Z,100015.84
2023-03-30T04:16:24.790Z,100012.38
2023-03-30T04:18:51.261Z,100003.81
2023-03-30T04:21:20.082Z,99995.13
2023-03-30T04:23:49.121Z,99978.81
2023-03-30T04:26:15.963Z,99978.03
2023-03-30T04:28:42.400Z,99978.91
2023-03-30T04:31:12.935Z,99988.47
2023-03-30T04:33:51.964Z,99987.63
2023-03-30T04:36:20.077Z,99989.34
2023-03-30T04:38:58.334Z,99981.63
2023-03-30T04:41:29.924Z,99978.16
2023-03-30T04:43:56.312Z,99977.31
2023-03-30T04:46:22.796Z,99966.09
2023-03-30T04:48:49.278Z,99979.91
2023-03-30T04:51:16.098Z,99977.28
2023-03-30T04:53:42.785Z,99980.75
2023-03-30T04:56:09.221Z,99976.44
2023-03-30T04:58:35.641Z,99958.38
2023-03-30T05:01:03.763Z,99955.72
2023-03-30T05:03:31.261Z,99939.41
2023-03-30T05:05:57.832Z,99956.66
2023-03-30T05:08:24.303Z,99945.59
2023-03-30T05:10:50.723Z,99952.59
2023-03-30T05:13:17.501Z,99953.59
2023-03-30T05:15:43.920Z,99946.78
2023-03-30T05:18:10.371Z,99944.25
2023-03-30T05:20:36.842Z,99939.25
2023-03-30T05:23:03.265Z,99942.78
2023-03-30T05:25:31.230Z,99930.78
2023-03-30T05:27:58.091Z,99922.22
2023-03-30T05:30:24.511Z,99923.19
2023-03-30T05:32:52.109Z,99929.25
2023-03-30T05:35:18.622Z,99925.16
2023-03-30T05:37:45.151Z,99942.56
2023-03-30T05:40:11.716Z,99936.53
2023-03-30T05:42:38.163Z,99934.94
2023-03-30T05:45:05.544Z,99935.03
2023-03-30T05:47:32.007Z,99927.38
2023-03-30T05:49:58.429Z,99931.75
2023-03-30T05:52:24.869Z,99920.66
2023-03-30T05:54:51.370Z,99918.16
2023-03-30T05:57:17.906Z,99911.34
2023-03-30T05:59:44.533Z,99914.94
2023-03-30T06:02:12.865Z,99922.78
2023-03-30T06:04:40.339Z,99913.34
2023-03-30T06:07:07.915Z,99913.50
2023-03-30T06:09:34.556Z,99899.69
2023-03-30T06:12:01.141Z,99901.53
2023-03-30T06:14:27.625Z,99899.94
2023-03-30T06:16:54.079Z,99895.78
2023-03-30T06:19:20.642Z,99893.28
2023-03-30T06:21:47.709Z,99893.38
2023-03-30T06:24:14.157Z,99895.19
2023-03-30T06:26:41.197Z,99891.91
2023-03-30T06:29:07.632Z,99892.03
2023-03-30T06:31:34.249Z,99894.72
2023-03-30T06:34:01.011Z,99895.69
2023-03-30T06:36:45.188Z,99887.19
2023-03-30T06:39:13.031Z,99872.63
2023-03-30T06:41:39.458Z,99872.66
2023-03-30T06:44:06.630Z,99871.97
2023-03-30T06:46:33.529Z,99876.50
2023-03-30T06:48:59.949Z,99877.53
2023-03-30T06:51:26.522Z,99880.22
2023-03-30T06:53:52.984Z,99882.03
2023-03-30T06:56:19.382Z,99889.06
2023-03-30T06:58:46.830Z,99886.59
2023-03-30T07:01:15.485Z,99882.31
2023-03-30T07:03:41.969Z,99883.34
2023-03-30T07:06:09.663Z,99885.19
2023-03-30T07:08:37.051Z,99887.84
2023-03-30T07:11:05.203Z,99885.31
2023-03-30T07:13:34.207Z,99892.38
2023-03-30T07:16:00.963Z,99887.31
2023-03-30T07:18:27.401Z,99883.91
2023-03-30T07:20:53.860Z,99879.81
2023-03-30T07:23:21.623Z,99880.81
2023-03-30T07:25:48.113Z,99882.88
2023-03-30T07:28:14.585Z,99878.75
2023-03-30T07:30:41.350Z,99869.41
2023-03-30T07:33:07.967Z,99874.69
2023-03-30T07:35:34.472Z,99878.34
2023-03-30T07:38:03.747Z,99883.59
2023-03-30T07:40:30.443Z,99882.91
2023-03-30T07:42:56.959Z,99888.22
2023-03-30T07:45:23.376Z,99887.44
2023-03-30T07:47:49.849Z,99884.03
2023-03-30T07:50:16.474Z,99884.03
2023-03-30T07:52:42.978Z,99878.94
2023-03-30T07:55:09.508Z,99885.03
2023-03-30T07:57:35.988Z,99879.03
2023-03-30T08:00:05.258Z,99879.13
2023-03-30T08:02:31.744Z,99872.97
2023-03-30T08:04:58.328Z,99872.97
2023-03-30T08:07:27.554Z,99875.69
2023-03-30T08:09:54.011Z,99882.69
2023-03-30T08:12:20.441Z,99886.25
2023-03-30T08:14:46.856Z,99881.09
2023-03-30T08:17:13.494Z,99883.84
2023-03-30T08:19:39.915Z,99884.75
2023-03-30T08:22:06.617Z,99883.16
2023-03-30T08:24:33.024Z,99879.81
2023-03-30T08:26:59.482Z,99892.00
2023-03-30T08:29:25.902Z,99884.22
2023-03-30T08:31:52.701Z,99889.56
2023-03-30T08:34:20.120Z,99881.78
2023-03-30T08:36:46.709Z,99880.97
2023-03-30T08:39:13.144Z,99877.50
2023-03-30T08:42:02.115Z,99879.31
2023-03-30T08:44:34.450Z,99876.75
2023-03-30T08:47:04.249Z,99884.63
2023-03-30T08:49:33.860Z,99882.03
2023-03-30T08:52:03.045Z,99883.00
2023-03-30T08:54:30.567Z,99885.63
2023-03-30T08:57:06.223Z,99885.63
2023-03-30T08:59:51.572Z,99886.63
2023-03-30T09:02:23.416Z,99878.00
2023-03-30T09:05:04.719Z,99880.72
2023-03-30T09:07:38.084Z,99866.88
2023-03-30T09:10:04.757Z,99868.72
2023-03-30T09:12:46.753Z,99864.47
2023-03-30T09:15:32.246Z,99873.22
2023-03-30T09:18:07.567Z,99867.09
2023-03-30T09:20:36.211Z,99873.25
2023-03-30T09:23:03.692Z,99885.44
2023-03-30T09:25:49.192Z,99884.56
2023-03-30T09:28:21.152Z,99891.53
2023-03-30T09:31:20.501Z,99884.56
2023-03-30T09:34:08.941Z,99874.16
2023-03-30T09:36:39.911Z,99875.94
2023-03-30T09:39:19.148Z,99862.06
2023-03-30T09:41:51.803Z,99861.25
2023-03-30T09:44:27.322Z,99859.50
2023-03-30T09:46:58.499Z,99858.66
2023-03-30T09:49:28.743Z,99858.66
2023-03-30T09:52:04.485Z,99858.66
2023-03-30T09:54:38.724Z,99857.81
2023-03-30T09:57:05.621Z,99850.88
2023-03-30T09:59:37.144Z,99850.88
2023-03-30T10:02:12.626Z,99850.88
2023-03-30T10:04:52.175Z,99841.25
2023-03-30T10:07:31.095Z,99837.75
2023-03-30T10:09:59.167Z,99837.75
2023-03-30T10:12:26.414Z,99845.59
2023-03-30T10:14:58.358Z,99840.31
2023-03-30T10:17:26.008Z,99842.94
2023-03-30T10:20:14.969Z,99851.66
2023-03-30T10:22:56.453Z,99847.28
2023-03-30T10:25:31.476Z,99830.69
2023-03-30T10:28:02.679Z,99837.63
2023-03-30T10:30:29.618Z,99828.88
2023-03-30T10:32:59.032Z,99829.75
2023-03-30T10:35:27.702Z,99828.91
2023-03-30T10:37:55.810Z,99832.41
2023-03-30T10:40:27.905Z,99830.69
2023-03-30T10:42:57.538Z,99817.59
2023-03-30T10:45:48.377Z,99823.69
2023-03-30T10:48:34.796Z,99820.19
2023-03-30T10:51:27.563Z,99813.16
2023-03-30T10:54:23.581Z,99799.97
2023-03-30T10:57:22.472Z,99801.63
2023-03-30T10:59:57.958Z,99798.88
2023-03-30T11:02:39.626Z,99795.28
2023-03-30T11:05:12.421Z,99790.81
2023-03-30T11:07:44.083Z,99784.63
2023-03-30T11:10:22.240Z,99780.25
2023-03-30T11:13:07.073Z,99778.47
2023-03-30T11:15:38.740Z,99777.59
2023-03-30T11:18:21.912Z,99765.31
2023-03-30T11:20:56.992Z,99762.59
2023-03-30T11:23:45.773Z,99766.88
2023-03-30T11:26:15.983Z,99768.44
2023-03-30T11:29:03.920Z,99756.97
2023-03-30T11:31:44.936Z,99767.56
2023-03-30T11:34:21.468Z,99761.50
2023-03-30T11:37:13.241Z,99756.31
2023-03-30T11:39:46.229Z,99748.50
2023-03-30T11:42:17.322Z,99747.69
2023-03-30T11:44:44.051Z,99753.81
2023-03-30T11:47:15.341Z,99756.47
2023-03-30T11:50:01.933Z,99753.09
2023-03-30T11:52:33.275Z,99760.09
2023-03-30T11:55:23.865Z,99760.97
2023-03-30T11:58:06.840Z,99748.84
2023-03-30T12:00:51.984Z,99758.44
2023-03-30T12:03:39.506Z,99748.78
2023-03-30T12:06:31.180Z,99747.75
2023-03-30T12:09:03.428Z,99751.16
2023-03-30T12:11:39.640Z,99748.50
2023-03-30T12:14:27.277Z,99746.78
2023-03-30T12:16:59.115Z,99746.84
2023-03-30T12:19:55.481Z,99755.75
2023-03-30T12:22:34.942Z,99749.59
2023-03-30T12:25:15.151Z,99752.25
2023-03-30T12:28:01.146Z,99759.34
2023-03-30T12:30:43.850Z,99752.34
2023-03-30T12:33:26.247Z,99769.13
2023-03-30T12:35:56.060Z,99788.53
2023-03-30T12:38:46.203Z,99789.56
2023-03-30T12:41:15.940Z,99789.66
2023-03-30T12:43:58.669Z,99810.66
2023-03-30T12:46:41.860Z,99820.31
2023-03-30T12:49:16.407Z,99842.13
2023-03-30T12:52:05.111Z,99839.50
2023-03-30T12:54:49.729Z,99869.94
2023-03-30T12:57:36.693Z,99858.56
2023-03-30T13:00:23.493Z,99866.34
2023-03-30T13:03:00.797Z,99868.84
2023-03-30T13:05:32.926Z,99867.84
2023-03-30T13:08:05.484Z,99870.38
2023-03-30T13:10:31.885Z,99873.78
2023-03-30T13:13:00.034Z,99870.19
2023-03-30T13:15:33.892Z,99871.03
2023-03-30T13:18:09.546Z,99872.69
2023-03-30T13:20:57.505Z,99863.91
2023-03-30T13:23:27.384Z,99856.06
2023-03-30T13:26:03.107Z,99844.75
2023-03-30T13:28:54.773Z,99840.50
2023-03-30T13:31:40.313Z,99853.56
2023-03-30T13:34:16.565Z,99859.72
2023-03-30T13:36:52.785Z,99848.47
2023-03-30T13:39:26.308Z,99844.19
2023-03-30T13:42:18.937Z,99846.00
2023-03-30T13:44:59.022Z,99844.25
2023-03-30T13:47:57.714Z,99831.25
2023-03-30T13:50:27.976Z,99826.88
2023-03-30T13:52:55.808Z,99821.66
2023-03-30T13:55:30.135Z,99819.97
2023-03-30T13:58:29.088Z,99821.81
2023-03-30T14:01:01.501Z,99823.53
2023-03-30T14:04:00.781Z,99816.59
2023-03-30T14:06:30.156Z,99813.16
2023-03-30T14:09:05.489Z,99820.13
2023-03-30T14:11:50.136Z,99818.38
2023-03-30T14:14:31.156Z,99823.59
2023-03-30T14:16:59.907Z,99821.88
2023-03-30T14:19:34.094Z,99816.66
2023-03-30T14:22:04.733Z,99816.69
2023-03-30T14:24:33.352Z,99812.34
2023-03-30T14:27:06.401Z,99827.16
2023-03-30T14:29:33.236Z,99838.47
2023-03-30T14:32:08.152Z,99834.97
2023-03-30T14:34:35.995Z,99840.22
2023-03-30T14:37:07.801Z,99846.31
2023-03-30T14:39:40.488Z,99840.25
2023-03-30T14:42:17.512Z,99849.88
2023-03-30T14:44:45.604Z,99847.25
2023-03-30T14:47:12.186Z,99844.66
2023-03-30T14:49:39.072Z,99848.13
2023-03-30T14:52:24.304Z,99844.66
2023-03-30T14:55:05.052Z,99849.88
2023-03-30T14:57:37.799Z,99852.50
2023-03-30T15:00:21.023Z,99854.25
2023-03-30T15:02:53.965Z,99850.78
2023-03-30T15:05:23.074Z,99849.91
2023-03-30T15:07:50.412Z,99841.22
2023-03-30T15:10:31.692Z,99856.03
2023-03-30T15:12:58.185Z,99851.66
2023-03-30T15:15:28.355Z,99849.94
2023-03-30T15:17:55.440Z,99847.34
2023-03-30T15:20:25.672Z,99850.00
2023-03-30T15:22:52.329Z,99850.00
2023-03-30T15:25:21.395Z,99844.78
2023-03-30T15:27:54.855Z,99842.13
2023-03-30T15:30:35.041Z,99853.50
2023-03-30T15:33:02.417Z,99853.47
2023-03-30T15:35:34.004Z,99856.09
2023-03-30T15:38:10.857Z,99857.84
2023-03-30T15:40:42.772Z,99860.44
2023-03-30T15:43:19.509Z,99867.38
2023-03-30T15:45:49.031Z,99864.75
2023-03-30T15:48:18.824Z,99873.44
2023-03-30T15:50:49.784Z,99876.03
2023-03-30T15:53:21.161Z,99895.13
2023-03-30T15:55:51.610Z,99892.50
2023-03-30T15:58:23.178Z,99901.16
2023-03-30T16:00:49.742Z,99899.38
2023-03-30T16:03:31.500Z,99887.16
2023-03-30T16:05:58.224Z,99890.63
2023-03-30T16:08:24.642Z,99885.44
2023-03-30T16:10:51.185Z,99884.63
2023-03-30T16:13:17.679Z,99895.13
2023-03-30T16:15:44.280Z,99894.31
2023-03-30T16:18:12.247Z,99903.91
2023-03-30T16:20:38.713Z,99896.94
2023-03-30T16:23:05.193Z,99908.25
2023-03-30T16:25:44.224Z,99914.34
2023-03-30T16:28:17.022Z,99916.84
2023-03-30T16:30:45.876Z,99920.31
2023-03-30T16:33:12.366Z,99908.88
2023-03-30T16:35:38.845Z,99920.16
2023-03-30T16:38:05.500Z,99919.19
2023-03-30T16:40:37.376Z,99919.97
2023-03-30T16:43:04.343Z,99914.66
2023-03-30T16:45:32.112Z,99908.53
2023-03-30T16:47:58.658Z,99913.69
2023-03-30T16:50:38.151Z,99917.91
2023-03-30T16:53:05.440Z,99923.91
2023-03-30T16:55:32.204Z,99929.09
2023-03-30T16:57:58.727Z,99925.50
2023-03-30T17:00:27.867Z,99942.84
2023-03-30T17:02:54.438Z,99952.59
2023-03-30T17:05:20.933Z,99953.41
2023-03-30T17:07:47.703Z,99962.34
2023-03-30T17:10:15.556Z,99961.25
2023-03-30T17:12:42.995Z,99946.09
2023-03-30T17:15:10.119Z,99943.16
2023-03-30T17:17:37.310Z,99936.91
2023-03-30T17:20:34.627Z,99941.09
2023-03-30T17:23:01.071Z,99939.22
2023-03-30T17:25:27.527Z,99937.28
2023-03-30T17:27:55.466Z,99942.34
2023-03-30T17:30:26.678Z,99949.16
2023-03-30T17:32:55.265Z,99945.50
2023-03-30T17:35:22.901Z,99930.59
2023-03-30T17:37:49.478Z,99953.94
2023-03-30T17:40:19.211Z,99953.66
2023-03-30T17:42:46.237Z,99963.09
2023-03-30T17:45:14.979Z,99949.88
2023-03-30T17:47:42.065Z,99954.97
2023-03-30T17:50:25.624Z,99960.94
2023-03-30T17:52:52.751Z,99959.06
2023-03-30T17:55:20.261Z,99949.38
2023-03-30T17:57:46.790Z,99961.44
2023-03-30T18:00:16.896Z,99966.50
2023-03-30T18:02:43.397Z,99967.38
2023-03-30T18:05:10.246Z,99982.88
2023-03-30T18:07:36.798Z,99981.91
2023-03-30T18:10:16.040Z,99993.88
2023-03-30T18:12:42.502Z,99997.34
2023-03-30T18:15:09.143Z,99991.25
2023-03-30T18:17:35.636Z,99997.22
2023-03-30T18:20:15.168Z,99990.97
2023-03-30T18:22:41.593Z,99989.22
2023-03-30T18:25:09.708Z,99996.09
2023-03-30T18:27:39.465Z,99996.78
2023-03-30T18:30:23.730Z,99999.34
2023-03-30T18:32:50.920Z,100000.13
2023-03-30T18:35:18.861Z,99995.72
2023-03-30T18:37:45.699Z,99995.72
2023-03-30T18:40:18.840Z,99988.69
2023-03-30T18:42:45.612Z,99993.78
2023-03-30T18:45:23.640Z,99999.72
2023-03-30T18:47:50.346Z,100010.00
2023-03-30T18:50:20.891Z,100006.50
2023-03-30T18:52:47.326Z,100009.91
2023-03-30T18:55:15.253Z,100015.00
2023-03-30T18:57:42.138Z,100014.00
2023-03-30T19:00:18.989Z,100018.28
2023-03-30T19:02:45.861Z,100025.19
2023-03-30T19:05:12.348Z,100021.56
2023-03-30T19:07:39.115Z,100026.56
2023-03-30T19:10:06.419Z,100030.84
2023-03-30T19:12:33.829Z,100030.84
2023-03-30T19:15:00.330Z,100030.81
2023-03-30T19:17:27.332Z,100024.75
2023-03-30T19:19:53.771Z,100032.47
2023-03-30T19:22:20.246Z,100021.25
2023-03-30T19:24:46.705Z,100025.50
2023-03-30T19:27:13.182Z,100029.88
2023-03-30T19:29:39.687Z,100029.91
2023-03-30T19:32:06.171Z,100030.75
2023-03-30T19:34:32.650Z,100035.91
2023-03-30T19:36:59.105Z,100031.63
2023-03-30T19:39:25.516Z,100041.94
2023-03-30T19:41:52.060Z,100029.81
2023-03-30T19:44:18.457Z,100041.03
2023-03-30T19:46:44.960Z,100036.69
2023-03-30T19:49:11.426Z,100041.91
2023-03-30T19:51:37.825Z,100035.00
2023-03-30T19:54:04.319Z,100027.25
2023-03-30T19:56:30.790Z,100035.94
2023-03-30T19:58:58.704Z,100033.25
2023-03-30T20:01:25.164Z,100031.50
2023-03-30T20:03:51.742Z,100039.13
2023-03-30T20:06:18.191Z,100038.25
2023-03-30T20:08:45.033Z,100033.91
2023-03-30T20:11:12.470Z,100026.88
2023-03-30T20:13:45.272Z,100027.75
2023-03-30T20:16:20.216Z,100031.19
2023-03-30T20:18:50.592Z,100030.34
2023-03-30T20:21:21.756Z,100029.47
2023-03-30T20:23:48.339Z,100032.09
2023-03-30T20:26:16.727Z,100030.38
2023-03-30T20:28:43.740Z,100027.75
2023-03-30T20:31:11.831Z,100032.03
2023-03-30T20:33:38.756Z,100030.38
2023-03-30T20:36:08.967Z,100035.59
2023-03-30T20:38:39.600Z,100032.13
2023-03-30T20:41:07.171Z,100026.94
2023-03-30T20:43:38.467Z,100030.41
2023-03-30T20:46:14.021Z,100033.91
2023-03-30T20:48:41.283Z,100029.63
2023-03-30T20:51:10.999Z,100025.25
2023-03-30T20:53:37.754Z,100019.09
2023-03-30T20:56:05.824Z,100029.31
2023-03-30T20:58:32.371Z,100029.22
2023-03-30T21:00:58.927Z,100020.50
2023-03-30T21:03:29.197Z,100018.69
2023-03-30T21:06:00.804Z,100013.34
2023-03-30T21:08:27.318Z,100013.25
2023-03-30T21:10:53.766Z,100006.25
2023-03-30T21:13:20.318Z,100017.44
2023-03-30T21:15:46.763Z,100016.44
2023-03-30T21:18:13.404Z,100016.41
2023-03-30T21:20:39.928Z,100005.16
2023-03-30T21:23:06.852Z,100010.41
2023-03-30T21:25:33.327Z,100010.34
2023-03-30T21:27:59.802Z,100007.75
2023-03-30T21:30:28.356Z,100000.94
2023-03-30T21:32:54.867Z,100002.72
2023-03-30T21:35:21.367Z,100003.66
2023-03-30T21:37:47.873Z,100004.59
2023-03-30T21:40:14.354Z,99994.31
2023-03-30T21:42:40.833Z,100000.44
2023-03-30T21:45:07.969Z,100005.75
2023-03-30T21:47:34.566Z,100011.06
2023-03-30T21:50:01.035Z,99992.94
2023-03-30T21:52:28.862Z,99996.56
2023-03-30T21:54:55.320Z,99996.44
2023-03-30T21:57:22.005Z,99996.44
2023-03-30T21:59:48.634Z,99996.47
2023-03-30T22:02:15.228Z,99996.47
2023-03-30T22:04:44.820Z,99998.16
2023-03-30T22:07:11.380Z,99992.88
2023-03-30T22:09:37.867Z,99994.50
2023-03-30T22:12:04.427Z,99988.44
2023-03-30T22:14:31.018Z,99982.34
2023-03-30T22:16:57.935Z,99988.31
2023-03-30T22:19:24.716Z,99984.00
2023-03-30T22:21:51.952Z,99988.34
2023-03-30T22:24:19.243Z,99977.09
2023-03-30T22:26:46.262Z,99972.84
2023-03-30T22:29:13.017Z,99970.28
2023-03-30T22:31:42.583Z,99968.56
2023-03-30T22:34:09.073Z,99967.75
2023-03-30T22:36:35.694Z,99960.84
2023-03-30T22:39:03.735Z,99962.59
2023-03-30T22:41:30.636Z,99968.66
2023-03-30T22:43:57.957Z,99961.81
2023-03-30T22:46:25.549Z,99954.84
2023-03-30T22:48:52.677Z,99960.84
2023-03-30T22:51:28.306Z,99954.78
2023-03-30T22:53:59.360Z,99954.75
2023-03-30T22:56:27.405Z,99949.44
2023-03-30T22:58:54.040Z,99943.31
2023-03-30T23:01:21.587Z,99949.34
2023-03-30T23:03:48.193Z,99946.63
2023-03-30T23:06:14.854Z,99943.13
2023-03-30T23:08:42.548Z,99941.31
2023-03-30T23:11:09.023Z,99943.91
2023-03-30T23:13:37.792Z,99937.84
2023-03-30T23:16:06.548Z,99937.81
2023-03-30T23:18:34.232Z,99936.81
2023-03-30T23:21:06.082Z,99935.19
2023-03-30T23:23:34.518Z,99936.91
2023-03-30T23:26:03.024Z,99930.03
2023-03-30T23:28:31.484Z,99940.47
2023-03-30T23:30:58.161Z,99932.66
2023-03-30T23:33:25.078Z,99929.31
2023-03-30T23:35:51.571Z,99935.44
2023-03-30T23:38:18.161Z,99931.13
2023-03-30T23:40:44.606Z,99925.13
2023-03-30T23:43:11.090Z,99922.53
2023-03-30T23:45:37.577Z,99919.97
2023-03-30T23:48:04.212Z,99905.25
2023-03-30T23:50:33.047Z,99920.84
2023-03-30T23:52:59.602Z,99906.97
2023-03-30T23:55:26.149Z,99904.38
2023-03-30T23:57:52.630Z,99908.66
